createdAt,value
2023-04-08T00:02:01.152Z,95125.75
2023-04-08T00:04:34.312Z,95119.81
2023-04-08T00:07:21.088Z,95118.97
2023-04-08T00:09:54.209Z,95119.69
2023-04-08T00:12:41.088Z,95122.13
2023-04-08T00:15:14.202Z,95118.66
2023-04-08T00:18:03.125Z,95116.88
2023-04-08T00:20:36.344Z,95121.91
2023-04-08T00:23:23.082Z,95110.84
2023-04-08T00:25:56.218Z,95119.16
2023-04-08T00:28:43.108Z,95118.19
2023-04-08T00:31:16.495Z,95121.41
2023-04-08T00:34:03.084Z,95119.69
2023-04-08T00:36:36.287Z,95120.56
2023-04-08T00:39:23.090Z,95124.69
2023-04-08T00:41:57.652Z,95123.81
2023-04-08T00:44:44.124Z,95125.47
2023-04-08T00:47:22.244Z,95125.38
2023-04-08T00:50:09.105Z,95132.06
2023-04-08T00:52:42.214Z,95133.81
2023-04-08T00:55:29.189Z,95131.28
2023-04-08T00:58:03.231Z,95131.34
2023-04-08T01:01:01.115Z,95130.63
2023-04-08T01:03:49.257Z,95140.69
2023-04-08T01:06:49.088Z,95135.72
2023-04-08T01:09:33.096Z,95133.16
2023-04-08T01:12:29.089Z,95141.63
2023-04-08T01:15:11.548Z,95137.50
2023-04-08T01:18:01.124Z,95135.03
2023-04-08T01:20:45.100Z,95133.47
2023-04-08T01:23:58.125Z,95140.22
2023-04-08T01:26:46.130Z,95143.53
2023-04-08T01:29:21.366Z,95142.75
2023-04-08T01:32:10.122Z,95141.06
2023-04-08T01:34:45.356Z,95136.09
2023-04-08T01:37:35.109Z,95136.97
2023-04-08T01:40:10.255Z,95136.09
2023-04-08T01:43:00.146Z,95137.81
2023-04-08T01:45:35.284Z,95134.41
2023-04-08T01:48:23.103Z,95148.63
2023-04-08T01:51:04.118Z,95141.84
2023-04-08T01:54:01.120Z,95143.47
2023-04-08T01:56:51.121Z,95148.44
2023-04-08T01:59:31.745Z,95148.38
2023-04-08T02:02:19.170Z,95143.31
2023-04-08T02:05:02.870Z,95147.44
2023-04-08T02:08:02.170Z,95149.00
2023-04-08T02:10:49.108Z,95150.63
2023-04-08T02:13:23.278Z,95153.88
2023-04-08T02:16:18.159Z,95155.44
2023-04-08T02:18:54.269Z,95160.38
2023-04-08T02:21:53.116Z,95160.34
2023-04-08T02:24:28.219Z,95173.69
2023-04-08T02:27:17.139Z,95167.69
2023-04-08T02:29:52.221Z,95180.16
2023-04-08T02:32:41.212Z,95180.00
2023-04-08T02:35:20.768Z,95171.41
2023-04-08T02:38:07.105Z,95174.59
2023-04-08T02:40:48.165Z,95175.31
2023-04-08T02:43:41.130Z,95176.00
2023-04-08T02:46:22.221Z,95179.19
2023-04-08T02:49:09.135Z,95176.59
2023-04-08T02:51:42.255Z,95192.41
2023-04-08T02:54:29.131Z,95194.03
2023-04-08T02:57:11.132Z,95201.50
2023-04-08T03:00:05.135Z,95193.88
2023-04-08T03:02:55.044Z,95192.13
2023-04-08T03:05:28.344Z,95187.00
2023-04-08T03:08:15.095Z,95194.53
2023-04-08T03:10:50.418Z,95192.00
2023-04-08T03:13:38.181Z,95188.66
2023-04-08T03:16:12.341Z,95196.13
2023-04-08T03:19:01.051Z,95195.13
2023-04-08T03:21:34.285Z,95198.41
2023-04-08T03:24:21.195Z,95202.56
2023-04-08T03:26:54.281Z,95199.88
2023-04-08T03:29:41.118Z,95201.47
2023-04-08T03:32:14.281Z,95202.22
2023-04-08T03:35:01.181Z,95213.03
2023-04-08T03:37:41.184Z,95208.97
2023-04-08T03:40:35.170Z,95219.88
2023-04-08T03:43:29.175Z,95204.81
2023-04-08T03:46:23.218Z,95211.50
2023-04-08T03:49:10.149Z,95219.88
2023-04-08T03:51:50.160Z,95214.72
2023-04-08T03:54:37.183Z,95225.56
2023-04-08T03:57:18.156Z,95223.13
2023-04-08T04:00:12.150Z,95220.72
2023-04-08T04:02:59.224Z,95215.56
2023-04-08T04:05:32.281Z,95220.56
2023-04-08T04:08:19.182Z,95223.06
2023-04-08T04:10:59.167Z,95216.25
2023-04-08T04:13:53.257Z,95217.00
2023-04-08T04:16:40.157Z,95226.97
2023-04-08T04:19:13.349Z,95230.34
2023-04-08T04:22:00.144Z,95226.22
2023-04-08T04:24:40.165Z,95229.69
2023-04-08T04:27:34.165Z,95235.59
2023-04-08T04:30:28.166Z,95235.59
2023-04-08T04:33:15.176Z,95233.88
2023-04-08T04:35:55.291Z,95242.22
2023-04-08T04:38:52.157Z,95249.69
2023-04-08T04:41:39.173Z,95254.66
2023-04-08T04:44:20.164Z,95256.28
2023-04-08T04:47:14.163Z,95263.84
2023-04-08T04:50:01.178Z,95259.81
2023-04-08T04:52:34.280Z,95264.13
2023-04-08T04:55:22.182Z,95268.38
2023-04-08T04:58:03.170Z,95266.59
2023-04-08T05:00:50.160Z,95271.72
2023-04-08T05:03:23.344Z,95273.38
2023-04-08T05:06:10.168Z,95271.75
2023-04-08T05:08:43.331Z,95276.88
2023-04-08T05:11:30.187Z,95272.91
2023-04-08T05:14:03.266Z,95275.78
2023-04-08T05:16:53.232Z,95274.78
2023-04-08T05:19:26.356Z,95282.84
2023-04-08T05:22:13.242Z,95279.81
2023-04-08T05:24:46.356Z,95279.44
2023-04-08T05:27:34.176Z,95278.31
2023-04-08T05:30:07.359Z,95283.09
2023-04-08T05:32:54.194Z,95282.00
2023-04-08T05:35:27.372Z,95285.06
2023-04-08T05:38:14.187Z,95290.66
2023-04-08T05:40:47.547Z,95297.78
2023-04-08T05:43:34.196Z,95293.16
2023-04-08T05:46:14.206Z,95288.53
2023-04-08T05:49:08.253Z,95287.19
2023-04-08T05:51:58.159Z,95272.38
2023-04-08T05:54:31.329Z,95277.78
2023-04-08T05:57:18.213Z,95280.69
2023-04-08T05:59:51.345Z,95280.97
2023-04-08T06:02:38.504Z,95276.28
2023-04-08T06:05:12.376Z,95280.00
2023-04-08T06:07:59.227Z,95281.13
2023-04-08T06:10:39.293Z,95278.06
2023-04-08T06:13:33.225Z,95275.00
2023-04-08T06:16:23.343Z,95269.22
2023-04-08T06:18:56.334Z,95278.78
2023-04-08T06:21:43.257Z,95281.44
2023-04-08T06:24:23.235Z,95279.16
2023-04-08T06:27:10.242Z,95284.47
2023-04-08T06:29:43.458Z,95278.69
2023-04-08T06:32:30.225Z,95281.44
2023-04-08T06:35:10.247Z,95274.88
2023-04-08T06:37:57.213Z,95271.59
2023-04-08T06:40:30.336Z,95281.78
2023-04-08T06:43:17.222Z,95286.09
2023-04-08T06:45:57.269Z,95303.00
2023-04-08T06:48:51.619Z,95302.06
2023-04-08T06:51:38.184Z,95297.81
2023-04-08T06:54:18.261Z,95302.84
2023-04-08T06:57:14.096Z,95299.50
2023-04-08T07:00:08.244Z,95300.34
2023-04-08T07:03:02.360Z,95296.19
2023-04-08T07:05:52.352Z,95302.16
2023-04-08T07:08:25.850Z,95297.09
2023-04-08T07:11:12.271Z,95304.69
2023-04-08T07:13:45.428Z,95303.84
2023-04-08T07:16:32.287Z,95314.00
2023-04-08T07:19:05.621Z,95319.09
2023-04-08T07:21:52.253Z,95320.72
2023-04-08T07:24:28.393Z,95325.72
2023-04-08T07:27:15.229Z,95320.66
2023-04-08T07:29:55.267Z,95329.13
2023-04-08T07:32:49.302Z,95327.41
2023-04-08T07:35:40.288Z,95329.09
2023-04-08T07:38:13.532Z,95333.34
2023-04-08T07:41:00.249Z,95330.88
2023-04-08T07:43:34.591Z,95330.94
2023-04-08T07:46:21.335Z,95329.34
2023-04-08T07:48:54.369Z,95331.13
2023-04-08T07:51:41.278Z,95331.22
2023-04-08T07:54:17.384Z,95331.34
2023-04-08T07:57:08.254Z,95322.19
2023-04-08T07:59:41.622Z,95323.94
2023-04-08T08:02:28.407Z,95327.34
2023-04-08T08:05:03.619Z,95329.03
2023-04-08T08:07:51.278Z,95320.56
2023-04-08T08:10:24.366Z,95323.13
2023-04-08T08:13:13.298Z,95323.03
2023-04-08T08:15:46.380Z,95328.94
2023-04-08T08:18:34.250Z,95332.25
2023-04-08T08:21:08.461Z,95322.13
2023-04-08T08:23:56.257Z,95330.56
2023-04-08T08:26:38.265Z,95336.47
2023-04-08T08:29:32.257Z,95338.06
2023-04-08T08:32:21.783Z,95335.50
2023-04-08T08:34:55.412Z,95337.13
2023-04-08T08:37:44.308Z,95337.09
2023-04-08T08:40:18.340Z,95342.16
2023-04-08T08:43:08.295Z,95338.81
2023-04-08T08:45:54.302Z,95340.53
2023-04-08T08:48:48.310Z,95342.25
2023-04-08T08:51:43.301Z,95339.84
2023-04-08T08:54:31.300Z,95339.88
2023-04-08T08:57:12.306Z,95346.59
2023-04-08T09:00:07.288Z,95355.91
2023-04-08T09:02:54.460Z,95357.56
2023-04-08T09:05:29.719Z,95352.50
2023-04-08T09:08:30.322Z,95350.81
2023-04-08T09:11:26.306Z,95357.56
2023-04-08T09:14:24.345Z,95360.06
2023-04-08T09:17:08.305Z,95355.81
2023-04-08T09:20:20.263Z,95355.84
2023-04-08T09:23:09.288Z,95355.13
2023-04-08T09:25:42.582Z,95355.25
2023-04-08T09:28:29.298Z,95356.97
2023-04-08T09:31:02.367Z,95356.13
2023-04-08T09:33:50.552Z,95352.72
2023-04-08T09:36:24.418Z,95356.09
2023-04-08T09:39:11.305Z,95362.00
2023-04-08T09:41:53.373Z,95359.50
2023-04-08T09:44:49.310Z,95373.00
2023-04-08T09:47:51.294Z,95356.94
2023-04-08T09:50:46.309Z,95360.38
2023-04-08T09:53:52.477Z,95350.34
2023-04-08T09:56:57.296Z,95355.47
2023-04-08T09:59:45.338Z,95347.88
2023-04-08T10:02:30.530Z,95350.47
2023-04-08T10:05:20.312Z,95353.94
2023-04-08T10:07:55.393Z,95353.06
2023-04-08T10:10:47.774Z,95358.13
2023-04-08T10:13:29.346Z,95356.41
2023-04-08T10:16:31.378Z,95361.53
2023-04-08T10:19:04.413Z,95359.06
2023-04-08T10:21:56.415Z,95358.28
2023-04-08T10:24:29.685Z,95359.16
2023-04-08T10:27:48.670Z,95352.38
2023-04-08T10:30:41.304Z,95349.84
2023-04-08T10:33:34.961Z,95356.63
2023-04-08T10:36:19.452Z,95359.09
2023-04-08T10:39:06.307Z,95366.66
2023-04-08T10:41:48.599Z,95359.84
2023-04-08T10:44:35.327Z,95359.81
2023-04-08T10:47:08.422Z,95366.56
2023-04-08T10:49:56.299Z,95360.59
2023-04-08T10:52:36.315Z,95365.66
2023-04-08T10:55:25.314Z,95360.56
2023-04-08T10:57:59.340Z,95361.41
2023-04-08T11:00:47.306Z,95360.56
2023-04-08T11:03:20.754Z,95367.34
2023-04-08T11:06:09.314Z,95376.56
2023-04-08T11:08:44.788Z,95371.47
2023-04-08T11:11:36.307Z,95379.94
2023-04-08T11:14:17.312Z,95373.94
2023-04-08T11:17:14.352Z,95376.44
2023-04-08T11:20:01.328Z,95373.78
2023-04-08T11:22:42.361Z,95379.69
2023-04-08T11:25:29.343Z,95375.44
2023-04-08T11:28:02.964Z,95377.91
2023-04-08T11:30:52.385Z,95378.69
2023-04-08T11:33:25.427Z,95376.13
2023-04-08T11:36:12.394Z,95378.66
2023-04-08T11:38:47.985Z,95385.41
2023-04-08T11:41:44.357Z,95381.94
2023-04-08T11:44:34.609Z,95386.16
2023-04-08T11:47:30.488Z,95389.56
2023-04-08T11:50:26.360Z,95387.00
2023-04-08T11:53:38.360Z,95392.09
2023-04-08T11:56:34.642Z,95382.72
2023-04-08T11:59:07.422Z,95386.91
2023-04-08T12:01:54.393Z,95382.56
2023-04-08T12:04:27.585Z,95390.06
2023-04-08T12:07:14.386Z,95388.34
2023-04-08T12:09:47.466Z,95387.41
2023-04-08T12:12:34.365Z,95395.84
2023-04-08T12:15:14.350Z,95394.16
2023-04-08T12:18:10.417Z,95392.50
2023-04-08T12:21:04.374Z,95391.63
2023-04-08T12:23:51.568Z,95394.09
2023-04-08T12:26:32.347Z,95390.72
2023-04-08T12:29:26.354Z,95395.78
2023-04-08T12:32:13.358Z,95392.38
2023-04-08T12:34:46.429Z,95393.25
2023-04-08T12:37:34.386Z,95392.38
2023-04-08T12:40:14.367Z,95390.69
2023-04-08T12:43:01.344Z,95388.97
2023-04-08T12:45:41.349Z,95390.66
2023-04-08T12:48:35.345Z,95383.13
2023-04-08T12:51:29.449Z,95386.53
2023-04-08T12:54:16.387Z,95382.41
2023-04-08T12:56:50.492Z,95389.25
2023-04-08T12:59:38.399Z,95389.25
2023-04-08T13:02:11.449Z,95389.25
2023-04-08T13:05:00.395Z,95392.66
2023-04-08T13:07:33.474Z,95380.81
2023-04-08T13:10:20.365Z,95386.78
2023-04-08T13:12:53.448Z,95387.69
2023-04-08T13:15:40.363Z,95386.81
2023-04-08T13:18:13.569Z,95388.50
2023-04-08T13:21:01.441Z,95388.53
2023-04-08T13:23:34.692Z,95388.56
2023-04-08T13:26:21.495Z,95387.72
2023-04-08T13:29:02.060Z,95382.63
2023-04-08T13:31:57.772Z,95384.31
2023-04-08T13:34:51.572Z,95386.91
2023-04-08T13:37:38.394Z,95387.75
2023-04-08T13:40:13.393Z,95390.31
2023-04-08T13:43:00.436Z,95390.34
2023-04-08T13:45:33.677Z,95386.16
2023-04-08T13:48:27.580Z,95389.56
2023-04-08T13:51:14.373Z,95393.78
2023-04-08T13:53:47.467Z,95391.28
2023-04-08T13:56:34.374Z,95393.00
2023-04-08T13:59:14.671Z,95398.94
2023-04-08T14:02:09.080Z,95392.97
2023-04-08T14:04:57.018Z,95397.22
2023-04-08T14:07:31.237Z,95392.19
2023-04-08T14:10:18.473Z,95396.44
2023-04-08T14:12:59.025Z,95398.16
2023-04-08T14:15:53.535Z,95399.84
2023-04-08T14:18:40.403Z,95392.28
2023-04-08T14:21:15.764Z,95395.72
2023-04-08T14:24:02.870Z,95390.66
2023-04-08T14:26:43.441Z,95396.63
2023-04-08T14:29:30.429Z,95400.03
2023-04-08T14:32:10.558Z,95397.53
2023-04-08T14:35:05.509Z,95400.06
2023-04-08T14:37:53.675Z,95402.63
2023-04-08T14:40:36.503Z,95403.53
2023-04-08T14:43:31.701Z,95401.00
2023-04-08T14:46:18.761Z,95406.88
2023-04-08T14:48:59.804Z,95402.59
2023-04-08T14:51:53.769Z,95400.03
2023-04-08T14:54:48.192Z,95401.72
2023-04-08T14:57:35.760Z,95405.91
2023-04-08T15:00:17.106Z,95399.91
2023-04-08T15:03:12.195Z,95401.56
2023-04-08T15:05:59.518Z,95401.56
2023-04-08T15:08:39.531Z,95401.59
2023-04-08T15:11:33.616Z,95403.25
2023-04-08T15:14:20.720Z,95402.38
2023-04-08T15:16:54.854Z,95407.41
2023-04-08T15:19:42.680Z,95411.63
2023-04-08T15:22:16.542Z,95408.25
2023-04-08T15:25:04.204Z,95415.03
2023-04-08T15:27:38.895Z,95409.97
2023-04-08T15:30:30.698Z,95414.16
2023-04-08T15:33:04.927Z,95416.72
2023-04-08T15:35:55.453Z,95416.69
2023-04-08T15:38:28.867Z,95410.78
2023-04-08T15:41:22.436Z,95409.94
2023-04-08T15:43:56.578Z,95413.31
2023-04-08T15:46:43.511Z,95415.88
2023-04-08T15:49:17.001Z,95416.69
2023-04-08T15:52:03.661Z,95415.78
2023-04-08T15:54:44.598Z,95419.13
2023-04-08T15:57:38.725Z,95424.22
2023-04-08T16:00:25.518Z,95420.75
2023-04-08T16:02:58.730Z,95429.16
2023-04-08T16:05:46.445Z,95421.53
2023-04-08T16:08:26.794Z,95423.16
2023-04-08T16:11:20.736Z,95425.66
2023-04-08T16:14:14.483Z,95420.59
2023-04-08T16:17:08.417Z,95423.94
2023-04-08T16:20:04.679Z,95432.38
2023-04-08T16:22:58.623Z,95425.56
2023-04-08T16:25:45.689Z,95431.50
2023-04-08T16:28:26.430Z,95427.25
2023-04-08T16:31:20.453Z,95423.00
2023-04-08T16:34:14.714Z,95425.53
2023-04-08T16:37:01.471Z,95429.72
2023-04-08T16:39:34.550Z,95433.09
2023-04-08T16:42:21.445Z,95431.34
2023-04-08T16:44:54.541Z,95427.09
2023-04-08T16:47:51.460Z,95438.06
2023-04-08T16:50:38.436Z,95432.09
2023-04-08T16:53:11.767Z,95436.34
2023-04-08T16:55:58.432Z,95437.97
2023-04-08T16:58:31.731Z,95437.94
2023-04-08T17:01:20.464Z,95441.31
2023-04-08T17:03:53.750Z,95443.78
2023-04-08T17:06:43.467Z,95445.47
2023-04-08T17:09:17.581Z,95451.31
2023-04-08T17:12:04.447Z,95447.03
2023-04-08T17:14:44.439Z,95451.19
2023-04-08T17:17:31.470Z,95456.25
2023-04-08T17:20:05.256Z,95465.53
2023-04-08T17:22:52.445Z,95462.94
2023-04-08T17:25:25.689Z,95464.63
2023-04-08T17:28:12.456Z,95471.41
2023-04-08T17:30:45.704Z,95468.84
2023-04-08T17:33:32.442Z,95478.97
2023-04-08T17:36:06.067Z,95475.56
2023-04-08T17:38:54.470Z,95476.41
2023-04-08T17:41:39.211Z,95486.53
2023-04-08T17:44:28.471Z,95486.50
2023-04-08T17:47:04.563Z,95492.41
2023-04-08T17:49:58.552Z,95487.31
2023-04-08T17:52:45.718Z,95486.44
2023-04-08T17:55:20.619Z,95490.66
2023-04-08T17:58:07.478Z,95493.16
2023-04-08T18:00:40.712Z,95499.91
2023-04-08T18:03:27.559Z,95493.13
2023-04-08T18:06:00.611Z,95498.16
2023-04-08T18:08:47.462Z,95496.47
2023-04-08T18:11:22.082Z,95501.50
2023-04-08T18:14:09.475Z,95503.16
2023-04-08T18:16:42.621Z,95504.78
2023-04-08T18:19:32.496Z,95499.69
2023-04-08T18:22:05.719Z,95507.28
2023-04-08T18:24:52.715Z,95507.28
2023-04-08T18:27:32.470Z,95508.97
2023-04-08T18:30:19.486Z,95510.66
2023-04-08T18:32:52.667Z,95513.19
2023-04-08T18:35:39.499Z,95514.00
2023-04-08T18:38:12.565Z,95506.38
2023-04-08T18:40:59.483Z,95511.44
2023-04-08T18:43:32.573Z,95519.03
2023-04-08T18:46:19.508Z,95511.44
2023-04-08T18:49:00.539Z,95518.16
2023-04-08T18:51:58.991Z,95516.41
2023-04-08T18:54:42.485Z,95522.28
2023-04-08T18:57:29.555Z,95519.69
2023-04-08T19:00:02.954Z,95526.41
2023-04-08T19:02:49.584Z,95519.66
2023-04-08T19:05:22.569Z,95526.41
2023-04-08T19:08:09.520Z,95531.44
2023-04-08T19:10:42.731Z,95524.69
2023-04-08T19:13:30.485Z,95523.00
2023-04-08T19:16:10.590Z,95522.16
2023-04-08T19:19:04.523Z,95525.50
2023-04-08T19:21:51.513Z,95527.16
2023-04-08T19:24:24.613Z,95520.38
2023-04-08T19:27:12.549Z,95522.88
2023-04-08T19:29:46.064Z,95531.34
2023-04-08T19:32:33.485Z,95527.91
2023-04-08T19:35:06.789Z,95524.50
2023-04-08T19:37:53.548Z,95525.38
2023-04-08T19:40:33.533Z,95525.34
2023-04-08T19:43:24.602Z,95525.31
2023-04-08T19:46:02.492Z,95529.50
2023-04-08T19:48:59.714Z,95522.72
2023-04-08T19:51:46.487Z,95528.66
2023-04-08T19:54:19.622Z,95527.78
2023-04-08T19:57:07.498Z,95529.47
2023-04-08T19:59:40.601Z,95529.41
2023-04-08T20:02:28.696Z,95531.91
2023-04-08T20:05:03.338Z,95531.00
2023-04-08T20:07:50.621Z,95524.19
2023-04-08T20:10:23.623Z,95527.53
2023-04-08T20:13:10.582Z,95523.25
2023-04-08T20:15:50.572Z,95519.78
2023-04-08T20:18:37.507Z,95521.44
2023-04-08T20:21:20.524Z,95518.81
2023-04-08T20:24:14.505Z,95519.63
2023-04-08T20:27:01.583Z,95522.13
2023-04-08T20:29:34.713Z,95524.59
2023-04-08T20:32:21.525Z,95525.44
2023-04-08T20:34:55.717Z,95523.75
2023-04-08T20:37:43.558Z,95528.78
2023-04-08T20:40:23.530Z,95522.75
2023-04-08T20:43:17.519Z,95526.84
2023-04-08T20:46:04.673Z,95523.34
2023-04-08T20:48:37.674Z,95527.44
2023-04-08T20:51:24.645Z,95534.06
2023-04-08T20:53:58.464Z,95532.22
2023-04-08T20:56:46.662Z,95532.91
2023-04-08T20:59:20.833Z,95538.66
2023-04-08T21:02:07.782Z,95539.41
2023-04-08T21:04:47.495Z,95542.78
2023-04-08T21:07:41.574Z,95543.53
2023-04-08T21:10:35.587Z,95540.03
2023-04-08T21:13:29.680Z,95546.66
2023-04-08T21:16:16.669Z,95544.00
2023-04-08T21:18:56.558Z,95547.25
2023-04-08T21:21:50.552Z,95548.00
2023-04-08T21:24:37.642Z,95552.97
2023-04-08T21:27:10.713Z,95554.53
2023-04-08T21:29:58.524Z,95560.25
2023-04-08T21:32:38.555Z,95561.78
2023-04-08T21:35:25.544Z,95557.44
2023-04-08T21:37:58.737Z,95560.63
2023-04-08T21:40:45.543Z,95565.50
2023-04-08T21:43:18.683Z,95559.47
2023-04-08T21:46:05.579Z,95565.25
2023-04-08T21:48:45.588Z,95561.84
2023-04-08T21:51:32.552Z,95560.13
2023-04-08T21:54:05.674Z,95559.19
2023-04-08T21:56:52.607Z,95559.97
2023-04-08T21:59:26.040Z,95560.72
2023-04-08T22:02:12.725Z,95554.75
2023-04-08T22:04:46.680Z,95555.59
2023-04-08T22:07:33.617Z,95555.56
2023-04-08T22:10:06.879Z,95570.66
2023-04-08T22:12:53.551Z,95568.88
2023-04-08T22:15:33.646Z,95567.09
2023-04-08T22:18:27.581Z,95565.28
2023-04-08T22:21:14.613Z,95562.59
2023-04-08T22:23:47.785Z,95572.59
2023-04-08T22:26:34.574Z,95562.41
2023-04-08T22:29:07.753Z,95565.72
2023-04-08T22:31:54.562Z,95563.19
2023-04-08T22:34:27.709Z,95565.72
2023-04-08T22:37:14.616Z,95570.81
2023-04-08T22:39:47.805Z,95569.19
2023-04-08T22:42:34.578Z,95554.84
2023-04-08T22:45:07.798Z,95560.72
2023-04-08T22:47:54.627Z,95570.81
2023-04-08T22:50:27.742Z,95564.91
2023-04-08T22:53:14.581Z,95568.16
2023-04-08T22:55:47.680Z,95572.44
2023-04-08T22:58:35.566Z,95565.66
2023-04-08T23:01:08.723Z,95567.44
2023-04-08T23:03:56.651Z,95559.00
2023-04-08T23:06:36.566Z,95565.66
2023-04-08T23:09:31.606Z,95563.03
2023-04-08T23:12:18.568Z,95562.97
2023-04-08T23:14:51.713Z,95565.41
2023-04-08T23:17:38.588Z,95563.66
2023-04-08T23:20:12.664Z,95565.28
2023-04-08T23:22:59.584Z,95564.34
2023-04-08T23:25:33.159Z,95565.13
2023-04-08T23:28:19.585Z,95566.72
2023-04-08T23:30:52.785Z,95565.88
2023-04-08T23:33:39.561Z,95554.97
2023-04-08T23:36:17.709Z,95561.63
2023-04-08T23:39:23.575Z,95561.75
2023-04-08T23:41:57.115Z,95558.44
2023-04-08T23:45:02.602Z,95560.19
2023-04-08T23:47:57.676Z,95558.44
2023-04-08T23:50:51.605Z,95555.09
2023-04-08T23:53:38.591Z,95558.38
2023-04-08T23:56:13.696Z,95557.38
2023-04-08T23:59:00.594Z,95566.56
